Davis Vantage Pro 2 Aktiv Plus 6163EU 24h Lftung - Paderborn Riemeke
Wetterdaten: aktuell Mittwoch, 23.01.2019 15:59
Datum Zeit Temp. I. Temp. A. Feuchte I. Feuchte A. Luftdruck Regen Wind Richtung Richtung Sonnenschein ET UV Solar Taupunkt Windchill Windben
23.01.2019 15:59 19,3 C -2,6 C 51 % 77 % 1001,7 hPa 0,0 l/m 3,2 km/h (1 Bft) O 90 0 min 0,025 mm 0,0 UV-I 23 W/m -6,1 C -2,6 C 4,8 km/h (1 Bft)
23.01.2019 14:59 19,4 C -2,6 C 51 % 76 % 1001,2 hPa 0,0 l/m 8,0 km/h (2 Bft) O 90 0 min 0,025 mm 0,0 UV-I 49 W/m -6,2 C -4,4 C 12,9 km/h (3 Bft)
23.01.2019 13:59 19,5 C -2,8 C 51 % 76 % 1001,0 hPa 0,0 l/m 9,7 km/h (2 Bft) O 90 0 min 0,051 mm 0,0 UV-I 65 W/m -6,4 C -6,3 C 12,9 km/h (3 Bft)
23.01.2019 12:59 19,7 C -3,3 C 51 % 75 % 1000,9 hPa 0,0 l/m 6,4 km/h (2 Bft) S-SO 157 0 min 0,051 mm 0,0 UV-I 79 W/m -7,1 C -3,2 C 12,9 km/h (3 Bft)
23.01.2019 11:59 19,7 C -3,1 C 51 % 74 % 1000,9 hPa 0,0 l/m 9,7 km/h (2 Bft) SO 135 8 min 0,051 mm 0,0 UV-I 97 W/m -7,1 C -6,6 C 16,1 km/h (3 Bft)
23.01.2019 10:59 19,8 C -3,3 C 51 % 76 % 1000,8 hPa 0,0 l/m 8,0 km/h (2 Bft) O 90 19 min 0,025 mm 0,0 UV-I 76 W/m -6,9 C -5,1 C 11,3 km/h (2 Bft)
23.01.2019 09:59 19,6 C -3,3 C 51 % 77 % 1000,5 hPa 0,0 l/m 4,8 km/h (1 Bft) O-SO 112 0 min 0,000 mm 0,0 UV-I 94 W/m -6,7 C -3,3 C 6,4 km/h (2 Bft)
23.01.2019 08:59 19,6 C -5,1 C 51 % 81 % 1000,4 hPa 0,0 l/m 3,2 km/h (1 Bft) N-NO 22 0 min 0,000 mm 0,0 UV-I 19 W/m -7,8 C -5,1 C 6,4 km/h (2 Bft)
23.01.2019 07:59 19,6 C -4,6 C 51 % 80 % 1000,3 hPa 0,0 l/m 1,6 km/h (1 Bft) O-NO 67 0 min 0,000 mm 0,0 UV-I 0 W/m -7,5 C -4,6 C 3,2 km/h (1 Bft)
23.01.2019 06:59 19,6 C -4,4 C 50 % 80 % 1000,2 hPa 0,0 l/m 0,0 km/h (0 Bft) O-SO 112 0 min 0,000 mm 0,0 UV-I 0 W/m -7,3 C -4,4 C 1,6 km/h (1 Bft)
23.01.2019 05:59 19,6 C -4,3 C 50 % 80 % 1000,2 hPa 0,0 l/m 3,2 km/h (1 Bft) O-SO 112 0 min 0,000 mm 0,0 UV-I 0 W/m -7,2 C -4,3 C 4,8 km/h (1 Bft)
23.01.2019 04:59 19,8 C -4,4 C 51 % 81 % 1000,6 hPa 0,0 l/m 1,6 km/h (1 Bft) NO 45 0 min 0,000 mm 0,0 UV-I 0 W/m -7,2 C -4,4 C 3,2 km/h (1 Bft)
23.01.2019 03:59 19,9 C -4,2 C 51 % 79 % 1000,8 hPa 0,0 l/m 4,8 km/h (1 Bft) SO 135 0 min 0,025 mm 0,0 UV-I 0 W/m -7,3 C -4,2 C 8,0 km/h (2 Bft)
23.01.2019 02:59 20,1 C -3,9 C 51 % 79 % 1001,1 hPa 0,0 l/m 9,7 km/h (2 Bft) O-SO 112 0 min 0,000 mm 0,0 UV-I 0 W/m -7,0 C -7,5 C 14,5 km/h (3 Bft)
23.01.2019 01:59 20,2 C -3,8 C 51 % 79 % 1001,2 hPa 0,0 l/m 4,8 km/h (1 Bft) S-SW 202 0 min 0,000 mm 0,0 UV-I 0 W/m -6,9 C -3,8 C 9,7 km/h (2 Bft)
23.01.2019 00:59 20,4 C -3,9 C 51 % 79 % 1002,0 hPa 0,0 l/m 3,2 km/h (1 Bft) NO 45 0 min 0,025 mm 0,0 UV-I 0 W/m -7,0 C -3,9 C 4,8 km/h (1 Bft)
22.01.2019 23:59 20,7 C -3,6 C 51 % 78 % 1002,4 hPa 0,0 l/m 6,4 km/h (2 Bft) SO 135 0 min 0,000 mm 0,0 UV-I 0 W/m -6,9 C -3,5 C 14,5 km/h (3 Bft)
22.01.2019 22:59 21,0 C -3,6 C 52 % 78 % 1003,2 hPa 0,0 l/m 4,8 km/h (1 Bft) O-SO 112 0 min 0,000 mm 0,0 UV-I 0 W/m -6,9 C -3,6 C 6,4 km/h (2 Bft)
22.01.2019 21:59 21,2 C -3,6 C 52 % 78 % 1003,7 hPa 0,0 l/m 3,2 km/h (1 Bft) S 180 0 min 0,025 mm 0,0 UV-I 0 W/m -6,9 C -3,6 C 4,8 km/h (1 Bft)
22.01.2019 20:59 21,2 C -3,6 C 50 % 79 % 1003,9 hPa 0,0 l/m 1,6 km/h (1 Bft) O-SO 112 0 min 0,025 mm 0,0 UV-I 0 W/m -6,7 C -3,6 C 3,2 km/h (1 Bft)
22.01.2019 19:59 21,3 C -3,3 C 49 % 78 % 1004,3 hPa 0,0 l/m 11,3 km/h (2 Bft) S-SO 157 0 min 0,025 mm 0,0 UV-I 0 W/m -6,6 C -8,2 C 14,5 km/h (3 Bft)
22.01.2019 18:59 21,6 C -3,3 C 49 % 77 % 1004,5 hPa 0,0 l/m 8,0 km/h (2 Bft) SO 135 0 min 0,000 mm 0,0 UV-I 0 W/m -6,7 C -5,1 C 14,5 km/h (3 Bft)
22.01.2019 17:59 21,3 C -3,4 C 48 % 76 % 1004,9 hPa 0,0 l/m 6,4 km/h (2 Bft) S-SO 157 0 min 0,025 mm 0,0 UV-I 0 W/m -7,0 C -3,3 C 12,9 km/h (3 Bft)
22.01.2019 16:59 20,8 C -2,9 C 49 % 73 % 1005,0 hPa 0,0 l/m 1,6 km/h (1 Bft) SO 135 0 min 0,051 mm 0,0 UV-I 0 W/m -7,0 C -2,9 C 3,2 km/h (1 Bft)
22.01.2019 16:00 21,2 C -2,2 C 49 % 71 % 1005,6 hPa 0,0 l/m 8,0 km/h (2 Bft) O-SO 112 0 min 0,051 mm 0,0 UV-I 46 W/m -6,7 C -4,0 C 12,9 km/h (3 Bft)
_ Min-Zeit 15:23 08:15 17:28 16:00 06:07 - 17:20 - - - - - - 08:15 02:44 05:07
Minimum _ 19,3 C -5,1 C 48 % 71 % 1000,1 hPa - 0,0 km/h (0 Bft) - - - - - - -7,8 C -12,4 C 0,0 km/h (0 Bft)
_ Max-Zeit 17:37 16:00 21:30 04:52 16:01 16:00 02:38 - - 10:04 16:00 16:00 10:34 15:06 16:07 02:19
Maximum _ 21,6 C -2,1 C 52 % 81 % 1005,7 hPa 0,0 l/m 16,1 km/h
O (3 Bft)
- - 1 min 0,051 mm 0,0 UV-I 197 W/m -5,9 C -2,4 C 30,6 km/h
O (5 Bft)
Durchschnitt _ 20,3 C -3,5 C 50 % 77 % 1002,3 hPa #0,0 l/m 5,1 km/h (1 Bft) O - #27 min. #0,278 mm 0,0 UV-I 77 W/m -6,9 C -4,2 C 8,9 km/h (2 Bft)
© Andreas P. Gnther